Terminal Aerodrome Forecast
Issued by NWS Sioux Falls, SD

Home | Current Version | Previous Version | Text Only | Print | Product List | Glossary On
Versions: 1 2 3 4 5 6 7 8 9 10 11 12 13 14 15
000
FTUS43 KFSD 191124
TAFHON
TAF
KHON 191124Z 1912/2012 33013G19KT P6SM SCT010 OVC035
     FM191400 33018G27KT P6SM BKN040 BKN100
     FM191700 33024G34KT P6SM SCT050
     FM200100 33013G20KT P6SM SKC=

USA.gov is the U.S. government's official web portal to all federal, state and local government web resources and services.